createdAt,value
2022-08-02T00:00:35.473Z,78.80
2022-08-02T00:03:02.910Z,78.40
2022-08-02T00:05:30.330Z,78.10
2022-08-02T00:07:57.797Z,77.80
2022-08-02T00:10:25.191Z,77.70
2022-08-02T00:12:53.259Z,77.60
2022-08-02T00:15:20.835Z,77.40
2022-08-02T00:17:48.692Z,77.20
2022-08-02T00:20:16.711Z,77.10
2022-08-02T00:22:44.493Z,77.10
2022-08-02T00:25:11.804Z,77.40
2022-08-02T00:27:39.294Z,77.60
2022-08-02T00:30:07.122Z,77.90
2022-08-02T00:32:34.780Z,78.10
2022-08-02T00:35:02.132Z,78.40
2022-08-02T00:37:29.444Z,78.40
2022-08-02T00:39:57.458Z,78.50
2022-08-02T00:42:24.940Z,78.60
2022-08-02T00:44:52.220Z,78.70
2022-08-02T00:47:20.060Z,78.60
2022-08-02T00:49:47.943Z,78.70
2022-08-02T00:52:15.342Z,78.60
2022-08-02T00:54:43.271Z,78.50
2022-08-02T00:57:10.911Z,78.60
2022-08-02T00:59:38.663Z,78.60
2022-08-02T01:02:06.157Z,78.60
2022-08-02T01:04:33.620Z,78.80
2022-08-02T01:07:13.336Z,78.70
2022-08-02T01:09:45.241Z,78.60
2022-08-02T01:12:13.852Z,78.60
2022-08-02T01:14:45.699Z,78.60
2022-08-02T01:17:41.508Z,78.50
2022-08-02T01:20:27.138Z,78.40
2022-08-02T01:23:01.989Z,78.60
2022-08-02T01:25:58.350Z,78.60
2022-08-02T01:28:54.903Z,78.70
2022-08-02T01:31:33.379Z,78.80
2022-08-02T01:34:25.456Z,79.50
2022-08-02T01:37:01.268Z,79.00
2022-08-02T01:39:32.535Z,79.10
2022-08-02T01:42:02.245Z,79.10
2022-08-02T01:44:34.704Z,79.30
2022-08-02T01:47:07.755Z,79.00
2022-08-02T01:49:38.576Z,79.00
2022-08-02T01:52:23.046Z,78.80
2022-08-02T01:54:56.713Z,78.90
2022-08-02T01:57:26.279Z,78.90
2022-08-02T01:59:58.291Z,78.90
2022-08-02T02:02:31.978Z,78.80
2022-08-02T02:05:01.902Z,78.80
2022-08-02T02:07:33.240Z,78.90
2022-08-02T02:10:02.571Z,78.80
2022-08-02T02:12:33.857Z,78.60
2022-08-02T02:15:02.838Z,78.80
2022-08-02T02:17:53.030Z,78.80
2022-08-02T02:20:21.711Z,78.70
2022-08-02T02:22:49.809Z,78.80
2022-08-02T02:25:27.516Z,78.90
2022-08-02T02:28:09.654Z,78.90
2022-08-02T02:30:40.020Z,78.80
2022-08-02T02:33:09.815Z,78.90
2022-08-02T02:35:38.434Z,78.90
2022-08-02T02:38:11.520Z,79.00
2022-08-02T02:40:40.461Z,79.10
2022-08-02T02:43:09.876Z,79.10
2022-08-02T02:45:39.252Z,79.10
2022-08-02T02:48:08.396Z,79.00
2022-08-02T02:50:37.775Z,79.10
2022-08-02T02:53:06.908Z,79.30
2022-08-02T02:55:34.446Z,79.30
2022-08-02T02:58:03.003Z,79.30
2022-08-02T03:00:49.541Z,79.30
2022-08-02T03:03:19.737Z,79.40
2022-08-02T03:05:49.509Z,79.30
2022-08-02T03:08:18.588Z,79.30
2022-08-02T03:10:47.818Z,79.40
2022-08-02T03:13:16.343Z,79.50
2022-08-02T03:15:46.093Z,79.70
2022-08-02T03:18:34.118Z,79.70
2022-08-02T03:21:03.410Z,80.00
2022-08-02T03:23:31.384Z,79.90
2022-08-02T03:25:59.428Z,80.00
2022-08-02T03:28:27.584Z,79.90
2022-08-02T03:30:54.912Z,79.80
2022-08-02T03:33:24.117Z,79.80
2022-08-02T03:35:54.180Z,79.80
2022-08-02T03:38:23.196Z,79.70
2022-08-02T03:40:57.970Z,79.70
2022-08-02T03:43:28.723Z,80.20
2022-08-02T03:45:58.112Z,79.40
2022-08-02T03:48:30.589Z,79.40
2022-08-02T03:51:02.761Z,79.20
2022-08-02T03:53:30.585Z,79.00
2022-08-02T03:55:59.550Z,79.00
2022-08-02T03:58:27.056Z,79.00
2022-08-02T04:00:56.389Z,78.90
2022-08-02T04:03:24.517Z,78.90
2022-08-02T04:06:04.420Z,78.90
2022-08-02T04:08:38.026Z,78.70
2022-08-02T04:11:25.861Z,78.50
2022-08-02T04:13:54.674Z,78.40
2022-08-02T04:16:37.917Z,78.20
2022-08-02T04:19:09.003Z,77.20
2022-08-02T04:21:50.419Z,76.30
2022-08-02T04:24:27.681Z,75.00
2022-08-02T04:26:57.759Z,74.00
2022-08-02T04:29:32.007Z,73.40
2022-08-02T04:32:00.466Z,73.00
2022-08-02T04:34:29.009Z,72.70
2022-08-02T04:36:57.360Z,72.40
2022-08-02T04:39:25.011Z,71.80
2022-08-02T04:41:57.173Z,71.00
2022-08-02T04:44:25.560Z,70.60
2022-08-02T04:46:52.937Z,69.80
2022-08-02T04:49:20.668Z,69.50
2022-08-02T04:51:48.317Z,69.20
2022-08-02T04:54:15.722Z,68.80
2022-08-02T04:56:43.116Z,69.30
2022-08-02T04:59:10.778Z,68.20
2022-08-02T05:01:42.617Z,68.60
2022-08-02T05:04:10.006Z,68.20
2022-08-02T05:06:37.451Z,67.80
2022-08-02T05:09:04.754Z,66.90
2022-08-02T05:11:36.307Z,67.10
2022-08-02T05:14:05.791Z,66.80
2022-08-02T05:16:33.225Z,66.90
2022-08-02T05:19:01.248Z,67.00
2022-08-02T05:21:30.173Z,67.80
2022-08-02T05:23:57.612Z,67.10
2022-08-02T05:26:25.006Z,67.30
2022-08-02T05:28:52.352Z,67.50
2022-08-02T05:31:20.268Z,66.70
2022-08-02T05:33:47.832Z,66.80
2022-08-02T05:36:15.752Z,66.60
2022-08-02T05:38:43.202Z,66.60
2022-08-02T05:41:21.066Z,65.80
2022-08-02T05:43:48.599Z,64.80
2022-08-02T05:46:15.982Z,64.70
2022-08-02T05:48:44.893Z,64.70
2022-08-02T05:51:19.159Z,65.30
2022-08-02T05:53:51.892Z,65.70
2022-08-02T05:56:33.466Z,66.00
2022-08-02T05:59:23.843Z,66.60
2022-08-02T06:01:58.122Z,64.40
2022-08-02T06:04:33.517Z,63.40
2022-08-02T06:07:07.077Z,63.30
2022-08-02T06:09:36.163Z,63.00
2022-08-02T06:12:04.792Z,63.20
2022-08-02T06:14:33.836Z,63.30
2022-08-02T06:17:05.010Z,62.90
2022-08-02T06:19:46.943Z,63.40
2022-08-02T06:22:31.434Z,64.30
2022-08-02T06:25:05.255Z,64.10
2022-08-02T06:27:34.070Z,64.70
2022-08-02T06:30:02.927Z,65.20
2022-08-02T06:32:32.228Z,65.90
2022-08-02T06:34:59.906Z,65.90
2022-08-02T06:37:37.566Z,65.60
2022-08-02T06:40:11.575Z,65.60
2022-08-02T06:42:51.700Z,63.90
2022-08-02T06:45:19.344Z,63.10
2022-08-02T06:47:46.669Z,63.10
2022-08-02T06:50:14.189Z,62.20
2022-08-02T06:52:41.729Z,61.40
2022-08-02T06:55:09.748Z,61.00
2022-08-02T06:57:37.155Z,61.70
2022-08-02T07:00:09.672Z,62.10
2022-08-02T07:02:37.880Z,63.10
2022-08-02T07:05:06.044Z,63.50
2022-08-02T07:07:33.915Z,64.00
2022-08-02T07:10:01.960Z,63.80
2022-08-02T07:12:31.021Z,64.50
2022-08-02T07:15:00.299Z,65.30
2022-08-02T07:17:28.570Z,65.70
2022-08-02T07:19:56.681Z,65.30
2022-08-02T07:22:26.752Z,65.60
2022-08-02T07:24:55.717Z,66.20
2022-08-02T07:27:23.396Z,66.70
2022-08-02T07:29:51.104Z,67.10
2022-08-02T07:32:20.040Z,66.90
2022-08-02T07:34:51.184Z,67.10
2022-08-02T07:37:52.970Z,67.40
2022-08-02T07:40:15.213Z,67.70
2022-08-02T07:42:56.397Z,67.60
2022-08-02T07:45:27.617Z,67.30
2022-08-02T07:47:56.917Z,67.20
2022-08-02T07:50:24.678Z,67.20
2022-08-02T07:52:57.178Z,67.70
2022-08-02T07:55:39.474Z,66.80
2022-08-02T07:58:13.663Z,66.90
2022-08-02T08:00:44.460Z,66.70
2022-08-02T08:03:12.662Z,65.80
2022-08-02T08:05:40.822Z,65.10
2022-08-02T08:08:12.288Z,65.40
2022-08-02T08:10:42.998Z,64.10
2022-08-02T08:13:10.421Z,64.70
2022-08-02T08:15:38.101Z,64.40
2022-08-02T08:18:05.751Z,63.80
2022-08-02T08:20:33.153Z,63.60
2022-08-02T08:23:00.431Z,63.50
2022-08-02T08:25:28.084Z,63.30
2022-08-02T08:27:56.710Z,63.20
2022-08-02T08:30:24.418Z,63.70
2022-08-02T08:32:51.962Z,63.80
2022-08-02T08:35:19.473Z,63.90
2022-08-02T08:37:47.147Z,63.10
2022-08-02T08:40:19.685Z,62.70
2022-08-02T08:42:47.719Z,63.00
2022-08-02T08:45:15.084Z,62.60
2022-08-02T08:47:43.121Z,62.40
2022-08-02T08:50:22.729Z,61.70
2022-08-02T08:53:06.571Z,61.30
2022-08-02T08:55:35.170Z,60.70
2022-08-02T08:58:04.287Z,61.00
2022-08-02T09:00:34.362Z,60.60
2022-08-02T09:03:06.680Z,60.60
2022-08-02T09:05:38.981Z,61.40
2022-08-02T09:08:07.308Z,61.70
2022-08-02T09:10:46.503Z,61.70
2022-08-02T09:13:37.617Z,62.70
2022-08-02T09:16:14.158Z,62.70
2022-08-02T09:18:46.933Z,63.60
2022-08-02T09:21:17.021Z,63.00
2022-08-02T09:23:49.911Z,63.10
2022-08-02T09:26:23.400Z,62.30
2022-08-02T09:29:00.958Z,62.00
2022-08-02T09:31:28.625Z,61.50
2022-08-02T09:33:58.535Z,60.80
2022-08-02T09:36:28.221Z,61.40
2022-08-02T09:39:00.135Z,60.60
2022-08-02T09:41:32.759Z,59.80
2022-08-02T09:44:04.482Z,59.10
2022-08-02T09:46:40.627Z,59.30
2022-08-02T09:49:11.545Z,59.50
2022-08-02T09:51:48.555Z,59.90
2022-08-02T09:54:25.730Z,58.50
2022-08-02T09:56:55.668Z,58.20
2022-08-02T09:59:25.114Z,58.40
2022-08-02T10:02:01.378Z,59.10
2022-08-02T10:04:52.342Z,58.20
2022-08-02T10:07:22.934Z,58.10
2022-08-02T10:09:51.678Z,59.00
2022-08-02T10:12:20.744Z,58.90
2022-08-02T10:14:51.794Z,58.10
2022-08-02T10:17:20.879Z,57.60
2022-08-02T10:20:02.778Z,57.10
2022-08-02T10:22:32.618Z,57.60
2022-08-02T10:25:03.147Z,56.70
2022-08-02T10:27:43.215Z,56.00
2022-08-02T10:30:19.815Z,55.90
2022-08-02T10:32:49.496Z,55.50
2022-08-02T10:35:25.268Z,55.20
2022-08-02T10:38:07.887Z,55.00
2022-08-02T10:40:52.512Z,55.10
2022-08-02T10:43:32.460Z,54.10
2022-08-02T10:46:30.283Z,53.90
2022-08-02T10:49:38.801Z,53.50
2022-08-02T10:52:08.585Z,54.20
2022-08-02T10:55:04.281Z,53.60
2022-08-02T10:57:41.000Z,54.60
2022-08-02T11:00:26.831Z,55.10
2022-08-02T11:02:54.317Z,54.30
2022-08-02T11:05:29.557Z,53.80
2022-08-02T11:08:19.466Z,53.40
2022-08-02T11:10:47.135Z,52.90
2022-08-02T11:13:17.129Z,53.30
2022-08-02T11:15:49.557Z,54.30
2022-08-02T11:18:17.663Z,55.30
2022-08-02T11:20:45.526Z,55.70
2022-08-02T11:23:43.979Z,56.30
2022-08-02T11:26:31.968Z,56.80
2022-08-02T11:29:05.267Z,56.70
2022-08-02T11:31:44.400Z,55.90
2022-08-02T11:34:36.675Z,55.10
2022-08-02T11:36:59.796Z,54.60
2022-08-02T11:39:27.138Z,53.60
2022-08-02T11:41:59.656Z,52.90
2022-08-02T11:44:29.487Z,51.50
2022-08-02T11:46:59.078Z,50.80
2022-08-02T11:49:27.522Z,51.00
2022-08-02T11:52:05.047Z,52.00
2022-08-02T11:54:35.540Z,52.70
2022-08-02T11:57:21.230Z,53.40
2022-08-02T11:59:51.736Z,53.10
2022-08-02T12:02:31.454Z,52.60
2022-08-02T12:05:09.105Z,51.90
2022-08-02T12:07:46.117Z,51.30
2022-08-02T12:10:22.379Z,50.10
2022-08-02T12:12:57.031Z,50.10
2022-08-02T12:15:41.887Z,50.60
2022-08-02T12:18:35.949Z,50.60
2022-08-02T12:21:20.117Z,50.70
2022-08-02T12:23:59.656Z,47.40
2022-08-02T12:26:28.824Z,48.20
2022-08-02T12:28:58.187Z,49.00
2022-08-02T12:31:56.028Z,49.30
2022-08-02T12:34:31.863Z,49.30
2022-08-02T12:37:02.663Z,48.40
2022-08-02T12:39:37.178Z,47.80
2022-08-02T12:42:06.040Z,48.40
2022-08-02T12:44:34.104Z,48.50
2022-08-02T12:47:04.164Z,47.90
2022-08-02T12:49:31.772Z,48.00
2022-08-02T12:52:04.845Z,47.10
2022-08-02T12:54:41.103Z,46.80
2022-08-02T12:57:13.890Z,46.70
2022-08-02T12:59:43.062Z,47.20
2022-08-02T13:02:12.736Z,46.50
2022-08-02T13:04:41.395Z,45.50
2022-08-02T13:07:09.446Z,45.50
2022-08-02T13:09:41.473Z,46.40
2022-08-02T13:12:09.043Z,45.40
2022-08-02T13:14:42.288Z,46.20
2022-08-02T13:17:13.041Z,43.70
2022-08-02T13:19:42.535Z,45.60
2022-08-02T13:22:10.704Z,46.20
2022-08-02T13:24:55.687Z,46.40
2022-08-02T13:27:25.015Z,47.00
2022-08-02T13:29:53.471Z,46.90
2022-08-02T13:32:21.841Z,46.40
2022-08-02T13:34:49.738Z,46.40
2022-08-02T13:37:17.704Z,45.70
2022-08-02T13:40:00.096Z,45.10
2022-08-02T13:42:33.365Z,44.80
2022-08-02T13:45:00.703Z,45.60
2022-08-02T13:48:04.057Z,44.50
2022-08-02T13:50:32.583Z,45.00
2022-08-02T13:52:59.880Z,44.90
2022-08-02T13:55:27.986Z,41.80
2022-08-02T13:57:55.725Z,44.40
2022-08-02T14:00:34.788Z,44.10
2022-08-02T14:03:05.871Z,43.20
2022-08-02T14:05:39.483Z,42.50
2022-08-02T14:08:17.001Z,42.70
2022-08-02T14:10:46.056Z,44.00
2022-08-02T14:13:13.707Z,43.60
2022-08-02T14:15:40.982Z,43.60
2022-08-02T14:18:08.460Z,43.10
2022-08-02T14:20:36.247Z,42.30
2022-08-02T14:23:03.551Z,40.90
2022-08-02T14:25:30.847Z,41.70
2022-08-02T14:27:58.259Z,41.50
2022-08-02T14:30:25.788Z,42.50
2022-08-02T14:32:53.391Z,41.10
2022-08-02T14:35:20.675Z,41.80
2022-08-02T14:37:47.999Z,41.80
2022-08-02T14:40:27.689Z,40.80
2022-08-02T14:42:59.268Z,41.00
2022-08-02T14:45:36.978Z,41.90
2022-08-02T14:48:10.663Z,42.70
2022-08-02T14:50:37.965Z,42.30
2022-08-02T14:53:05.496Z,41.90
2022-08-02T14:55:32.776Z,41.40
2022-08-02T14:58:00.053Z,41.40
2022-08-02T15:00:27.423Z,41.60
2022-08-02T15:02:56.648Z,42.30
2022-08-02T15:05:23.963Z,41.40
2022-08-02T15:07:51.367Z,42.10
2022-08-02T15:10:18.828Z,40.70
2022-08-02T15:12:46.646Z,40.30
2022-08-02T15:15:14.047Z,40.50
2022-08-02T15:17:41.617Z,40.50
2022-08-02T15:20:24.229Z,39.40
2022-08-02T15:22:54.054Z,38.30
2022-08-02T15:25:22.110Z,41.00
2022-08-02T15:27:49.576Z,41.40
2022-08-02T15:30:17.463Z,41.10
2022-08-02T15:32:53.094Z,41.10
2022-08-02T15:35:21.700Z,41.60
2022-08-02T15:37:49.149Z,41.30
2022-08-02T15:40:17.075Z,40.60
2022-08-02T15:42:44.649Z,40.40
2022-08-02T15:45:15.346Z,40.70
2022-08-02T15:47:48.073Z,40.30
2022-08-02T15:50:18.800Z,40.30
2022-08-02T15:52:46.375Z,40.90
2022-08-02T15:55:14.366Z,41.40
2022-08-02T15:57:41.713Z,41.20
2022-08-02T16:00:18.064Z,41.50
2022-08-02T16:02:46.872Z,41.70
2022-08-02T16:05:18.183Z,41.40
2022-08-02T16:07:46.674Z,41.60
2022-08-02T16:10:16.931Z,41.20
2022-08-02T16:12:44.549Z,41.70
2022-08-02T16:15:12.829Z,41.40
2022-08-02T16:17:53.597Z,40.70
2022-08-02T16:20:22.322Z,40.40
2022-08-02T16:22:49.623Z,40.70
2022-08-02T16:25:17.598Z,39.80
2022-08-02T16:27:59.580Z,39.70
2022-08-02T16:30:32.642Z,39.50
2022-08-02T16:33:00.023Z,39.10
2022-08-02T16:35:30.133Z,38.60
2022-08-02T16:37:57.584Z,39.80
2022-08-02T16:40:25.164Z,39.40
2022-08-02T16:42:52.799Z,39.80
2022-08-02T16:45:21.458Z,40.50
2022-08-02T16:47:56.519Z,39.40
2022-08-02T16:50:28.385Z,39.60
2022-08-02T16:52:57.984Z,40.50
2022-08-02T16:58:14.475Z,40.60
2022-08-02T17:00:46.530Z,40.90
2022-08-02T17:03:15.455Z,41.40
2022-08-02T17:05:55.928Z,41.80
2022-08-02T17:08:24.351Z,42.70
2022-08-02T17:11:03.318Z,42.20
2022-08-02T17:13:34.225Z,42.60
2022-08-02T17:16:20.792Z,42.50
2022-08-02T17:18:54.036Z,42.70
2022-08-02T17:21:21.752Z,42.60
2022-08-02T17:24:07.663Z,42.80
2022-08-02T17:26:37.713Z,42.50
2022-08-02T17:29:16.447Z,43.00
2022-08-02T17:32:05.632Z,43.40
2022-08-02T17:34:36.827Z,44.20
2022-08-02T17:37:05.886Z,44.70
2022-08-02T17:39:44.422Z,45.00
2022-08-02T17:42:20.099Z,46.10
2022-08-02T17:44:51.096Z,46.40
2022-08-02T17:47:19.354Z,46.90
2022-08-02T17:49:48.107Z,47.40
2022-08-02T17:52:50.634Z,46.90
2022-08-02T17:55:13.650Z,47.00
2022-08-02T17:57:56.060Z,47.40
2022-08-02T18:00:36.784Z,48.10
2022-08-02T18:03:07.948Z,48.90
2022-08-02T18:05:40.449Z,49.40
2022-08-02T18:11:10.019Z,50.30
2022-08-02T18:13:41.291Z,50.60
2022-08-02T18:16:21.734Z,50.80
2022-08-02T18:18:50.372Z,51.20
2022-08-02T18:24:06.024Z,51.90
2022-08-02T18:26:35.425Z,52.20
2022-08-02T18:29:04.715Z,52.50
2022-08-02T18:31:39.503Z,52.80
2022-08-02T18:34:07.687Z,53.10
2022-08-02T18:36:35.226Z,53.30
2022-08-02T18:39:08.173Z,53.20
2022-08-02T18:41:36.484Z,53.20
2022-08-02T18:44:05.764Z,53.30
2022-08-02T18:46:34.322Z,53.60
2022-08-02T18:49:06.735Z,54.40
2022-08-02T18:51:42.621Z,54.00
2022-08-02T18:54:10.161Z,54.40
2022-08-02T18:56:39.589Z,54.90
2022-08-02T18:59:07.752Z,55.20
2022-08-02T19:01:45.070Z,55.40
2022-08-02T19:04:16.149Z,55.70
2022-08-02T19:06:56.372Z,55.80
2022-08-02T19:09:23.913Z,56.10
2022-08-02T19:11:51.321Z,56.60
2022-08-02T19:14:27.239Z,57.10
2022-08-02T19:17:00.414Z,57.50
2022-08-02T19:19:44.297Z,57.80
2022-08-02T19:22:15.741Z,57.80
2022-08-02T19:24:47.807Z,58.10
2022-08-02T19:27:15.578Z,58.40
2022-08-02T19:29:48.719Z,58.60
2022-08-02T19:32:42.505Z,58.80
2022-08-02T19:35:19.472Z,59.70
2022-08-02T19:37:53.976Z,59.40
2022-08-02T19:40:24.355Z,59.60
2022-08-02T19:44:23.518Z,59.90
2022-08-02T19:45:49.947Z,60.10
2022-08-02T19:48:24.020Z,60.10
2022-08-02T19:50:56.101Z,60.60
2022-08-02T19:53:29.002Z,60.60
2022-08-02T19:55:59.312Z,60.80
2022-08-02T19:58:30.886Z,61.00
2022-08-02T20:01:00.247Z,61.20
2022-08-02T20:03:52.096Z,61.40
2022-08-02T20:06:17.728Z,61.50
2022-08-02T20:08:53.040Z,61.60
2022-08-02T20:11:24.684Z,61.90
2022-08-02T20:13:53.101Z,62.10
2022-08-02T20:19:07.943Z,62.50
2022-08-02T20:21:37.838Z,62.50
2022-08-02T20:24:10.846Z,63.30
2022-08-02T20:26:46.958Z,62.80
2022-08-02T20:29:42.433Z,63.00
2022-08-02T20:32:05.496Z,63.10
2022-08-02T20:34:33.729Z,63.30
2022-08-02T20:38:00.171Z,63.70
2022-08-02T20:39:53.861Z,63.80
2022-08-02T20:42:23.462Z,63.90
2022-08-02T20:44:55.336Z,64.90
2022-08-02T20:47:38.971Z,64.40
2022-08-02T20:50:30.408Z,64.70
2022-08-02T20:53:03.950Z,65.00
2022-08-02T20:55:32.251Z,65.40
2022-08-02T20:58:02.059Z,65.70
2022-08-02T21:00:32.132Z,66.20
2022-08-02T21:03:00.830Z,66.20
2022-08-02T21:05:43.754Z,66.60
2022-08-02T21:08:21.499Z,66.70
2022-08-02T21:10:52.728Z,67.50
2022-08-02T21:16:08.985Z,67.60
2022-08-02T21:18:40.279Z,67.80
2022-08-02T21:21:09.221Z,68.20
2022-08-02T21:23:37.690Z,68.60
2022-08-02T21:26:09.070Z,68.70
2022-08-02T21:28:44.932Z,69.00
2022-08-02T21:31:15.614Z,69.00
2022-08-02T21:33:57.919Z,69.30
2022-08-02T21:36:32.635Z,69.30
2022-08-02T21:39:05.130Z,69.50
2022-08-02T21:41:40.055Z,69.50
2022-08-02T21:44:23.562Z,69.60
2022-08-02T21:46:53.127Z,70.10
2022-08-02T21:49:27.064Z,70.50
2022-08-02T21:52:08.881Z,70.90
2022-08-02T21:54:40.440Z,71.30
2022-08-02T21:57:15.686Z,71.60
2022-08-02T21:59:46.260Z,71.70
2022-08-02T22:02:15.540Z,71.90
2022-08-02T22:04:48.103Z,71.90
2022-08-02T22:10:09.720Z,71.90
2022-08-02T22:12:37.075Z,72.60
2022-08-02T22:15:10.723Z,71.90
2022-08-02T22:17:52.996Z,72.10
2022-08-02T22:20:26.019Z,72.20
2022-08-02T22:22:56.592Z,72.20
2022-08-02T22:25:31.176Z,72.40
2022-08-02T22:28:35.453Z,72.70
2022-08-02T22:31:00.222Z,72.90
2022-08-02T22:33:46.937Z,72.80
2022-08-02T22:36:36.060Z,72.90
2022-08-02T22:39:19.181Z,73.10
2022-08-02T22:42:05.638Z,73.30
2022-08-02T22:44:35.176Z,73.20
2022-08-02T22:47:06.999Z,73.20
2022-08-02T22:49:51.723Z,73.20
2022-08-02T22:52:22.195Z,73.40
2022-08-02T22:54:50.826Z,74.40
2022-08-02T22:57:25.024Z,74.00
2022-08-02T22:58:35.576Z,40.50
2022-08-02T22:58:55.199Z,62.20
2022-08-02T22:58:57.182Z,49.90
2022-08-02T22:58:59.210Z,51.50
2022-08-02T22:59:02.073Z,67.10
2022-08-02T22:59:04.102Z,71.80
2022-08-02T23:00:00.249Z,74.40
2022-08-02T23:02:28.095Z,74.70
2022-08-02T23:04:57.429Z,74.80
2022-08-02T23:07:24.712Z,75.60
2022-08-02T23:09:52.224Z,74.90
2022-08-02T23:12:19.955Z,75.10
2022-08-02T23:14:48.414Z,75.10
2022-08-02T23:17:34.443Z,75.10
2022-08-02T23:20:01.916Z,75.10
2022-08-02T23:22:32.165Z,75.10
2022-08-02T23:25:01.227Z,75.20
2022-08-02T23:27:29.546Z,75.20
2022-08-02T23:29:56.926Z,75.20
2022-08-02T23:32:25.899Z,75.30
2022-08-02T23:34:57.671Z,75.60
2022-08-02T23:37:25.281Z,75.80
2022-08-02T23:39:52.701Z,76.60
2022-08-02T23:42:20.345Z,76.10
2022-08-02T23:44:47.672Z,76.80
2022-08-02T23:47:16.982Z,76.20
2022-08-02T23:49:44.744Z,76.40
2022-08-02T23:52:12.578Z,77.60
2022-08-02T23:54:40.023Z,77.40
2022-08-02T23:57:20.882Z,77.60
2022-08-02T23:59:51.007Z,77.90
